Time;durP1;ratioP1;P1;durP2;ratioP2;P2;SDS_P1;SDS_P2;PMS_P1;PMS_P2;Temp;Humidity;BMP_temperature;BMP_pressure;BME280_temperature;BME280_humidity;BME280_pressure;Samples;Min_cycle;Max_cycle;Signal;HPM_P1;HPM_P2
2021/08/09 00:00:48;;;;;;;;;1.00;0.00;;;;;18.19;57.46;101220.16;6088603;23;50857;-75
2021/08/09 00:03:14;;;;;;;;;0.00;0.00;;;;;18.24;57.24;101228.84;6088822;23;45967;-76
2021/08/09 00:05:39;;;;;;;;;0.75;0.75;;;;;18.21;57.30;101228.91;6088652;23;45316;-76
2021/08/09 00:08:05;;;;;;;;;0.00;0.00;;;;;18.21;56.72;101235.06;6088806;23;45887;-75
2021/08/09 00:10:31;;;;;;;;;0.00;0.00;;;;;18.17;57.31;101240.38;6089238;23;45294;-75
2021/08/09 00:12:57;;;;;;;;;0.00;0.00;;;;;18.18;56.92;101240.38;6086022;23;47432;-75
2021/08/09 00:15:24;;;;;;;;;0.00;0.00;;;;;18.15;56.76;101232.50;6087367;23;45411;-76
2021/08/09 00:17:49;;;;;;;;;0.00;0.00;;;;;18.14;56.84;101230.78;6088775;23;45309;-76
2021/08/09 00:20:16;;;;;;;;;0.00;0.00;;;;;18.06;57.01;101219.44;6089369;23;45250;-76
2021/08/09 00:22:41;;;;;;;;;0.00;0.00;;;;;18.02;56.93;101212.47;6086924;23;48364;-74
2021/08/09 00:25:07;;;;;;;;;0.00;0.00;;;;;18.01;57.26;101205.47;6088794;23;45294;-76
2021/08/09 00:27:33;;;;;;;;;0.00;0.00;;;;;18.10;56.96;101215.91;6088582;23;45345;-76
2021/08/09 00:29:59;;;;;;;;;0.00;0.00;;;;;18.05;57.30;101223.84;6088909;23;45361;-76
2021/08/09 00:32:24;;;;;;;;;0.00;0.00;;;;;17.93;57.43;101211.72;6088875;23;45211;-75
2021/08/09 00:34:49;;;;;;;;;0.00;0.00;;;;;18.02;57.24;101230.91;6088898;23;45230;-76
2021/08/09 00:37:15;;;;;;;;;0.00;0.00;;;;;18.00;56.93;101230.94;6088424;23;55994;-77
2021/08/09 00:39:40;;;;;;;;;0.00;0.00;;;;;17.94;56.95;101228.38;6089426;23;45302;-75
2021/08/09 00:42:07;;;;;;;;;0.00;0.00;;;;;17.94;57.27;101228.38;6087860;23;52264;-75
2021/08/09 00:44:33;;;;;;;;;0.00;0.00;;;;;17.86;57.71;101213.56;6088402;23;45236;-75
2021/08/09 00:46:58;;;;;;;;;0.00;0.00;;;;;17.79;57.45;101218.97;6088055;23;45621;-76
2021/08/09 00:49:23;;;;;;;;;0.00;0.00;;;;;17.77;57.57;101220.72;6089186;23;45442;-75
2021/08/09 00:51:51;;;;;;;;;0.00;0.00;;;;;17.77;57.98;101226.88;6088714;23;46331;-75
2021/08/09 00:54:16;;;;;;;;;0.25;0.00;;;;;17.81;57.87;101225.94;6089040;23;45298;-75
2021/08/09 00:56:42;;;;;;;;;0.00;0.00;;;;;17.79;57.65;101209.28;6088935;23;45322;-76
2021/08/09 00:59:07;;;;;;;;;1.00;0.00;;;;;17.84;58.00;101222.38;6089142;23;45771;-76
2021/08/09 01:01:33;;;;;;;;;0.00;0.00;;;;;17.89;58.15;101207.41;6088298;23;45716;-75
2021/08/09 01:03:58;;;;;;;;;0.00;0.00;;;;;17.94;57.85;101213.47;6086712;23;45680;-74
2021/08/09 01:06:23;;;;;;;;;0.00;0.00;;;;;17.89;57.92;101212.66;6089053;23;45313;-74
2021/08/09 01:09:19;;;;;;;;;0.00;0.00;;;;;17.88;58.20;101221.44;6088984;23;45316;-74
2021/08/09 01:11:55;;;;;;;;;0.00;0.00;;;;;17.78;58.41;101220.72;6088854;23;45913;-74
2021/08/09 01:14:51;;;;;;;;;0.00;0.00;;;;;17.78;58.31;101204.91;6088416;23;45381;-74
2021/08/09 01:17:19;;;;;;;;;0.00;0.00;;;;;17.75;58.81;101193.53;6088363;23;45183;-74
2021/08/09 01:19:58;;;;;;;;;0.00;0.00;;;;;17.77;58.37;101202.31;6088895;23;45329;-74
2021/08/09 01:22:34;;;;;;;;;0.00;0.00;;;;;17.69;58.59;101207.66;6088226;23;50882;-74
2021/08/09 01:25:12;;;;;;;;;0.00;0.00;;;;;17.63;58.97;101213.00;6088350;23;45339;-74
2021/08/09 01:27:40;;;;;;;;;1.00;0.00;;;;;17.55;58.56;101198.19;6089120;23;45339;-74
2021/08/09 01:30:09;;;;;;;;;0.00;0.00;;;;;17.56;58.78;101210.47;6088656;23;45342;-74
2021/08/09 01:32:38;;;;;;;;;0.00;0.00;;;;;17.45;58.64;101191.31;6088372;23;45377;-74
2021/08/09 01:35:09;;;;;;;;;0.00;0.00;;;;;17.51;59.05;101204.38;6089785;23;45416;-74
2021/08/09 01:37:39;;;;;;;;;0.00;0.00;;;;;17.47;59.33;101206.22;6090333;23;45322;-74
2021/08/09 01:40:07;;;;;;;;;0.00;0.00;;;;;17.50;59.01;101205.28;6090506;23;45394;-74
2021/08/09 01:42:32;;;;;;;;;0.00;0.00;;;;;17.35;59.26;101178.28;6089162;23;45322;-74
2021/08/09 01:44:58;;;;;;;;;0.00;0.00;;;;;17.45;59.02;101199.19;6089071;23;45333;-75
2021/08/09 01:47:24;;;;;;;;;0.00;0.00;;;;;17.33;59.14;101189.69;6090682;23;45424;-75
2021/08/09 01:49:49;;;;;;;;;0.00;0.00;;;;;17.29;59.13;101188.88;6088585;23;45360;-74
2021/08/09 01:52:15;;;;;;;;;0.00;0.00;;;;;17.42;59.47;101213.28;6089935;23;45943;-74
2021/08/09 01:54:41;;;;;;;;;0.00;0.00;;;;;17.44;59.72;101200.97;6089646;23;45549;-73
2021/08/09 01:57:07;;;;;;;;;0.00;0.00;;;;;17.46;59.27;101214.13;6088031;23;45337;-74
2021/08/09 01:59:32;;;;;;;;;0.00;0.00;;;;;17.45;59.64;101202.72;6090110;23;45337;-74
2021/08/09 02:01:57;;;;;;;;;0.00;0.00;;;;;17.49;59.15;101200.94;6089513;23;45405;-73
2021/08/09 02:04:23;;;;;;;;;0.00;0.00;;;;;17.51;59.87;101190.34;6089777;23;45434;-75
2021/08/09 02:06:48;;;;;;;;;0.00;0.00;;;;;17.48;59.40;101181.63;6089669;23;45352;-76
2021/08/09 02:09:13;;;;;;;;;0.00;0.00;;;;;17.52;58.94;101194.75;6090067;23;45360;-76
2021/08/09 02:11:53;;;;;;;;;0.00;0.00;;;;;17.47;59.22;101207.97;6089525;23;45848;-73
2021/08/09 02:14:23;;;;;;;;;0.00;0.00;;;;;17.39;59.57;101209.81;6089766;23;45660;-76
2021/08/09 02:16:59;;;;;;;;;0.00;0.00;;;;;17.35;59.72;101201.97;6090025;23;45357;-73
2021/08/09 02:19:39;;;;;;;;;0.00;0.00;;;;;17.31;59.59;101194.13;6090166;23;45326;-73
2021/08/09 02:22:18;;;;;;;;;0.00;0.00;;;;;17.26;59.48;101186.28;6089692;23;46136;-76
2021/08/09 02:24:46;;;;;;;;;0.00;0.00;;;;;17.40;59.81;101201.88;6087986;23;45318;-76
2021/08/09 02:27:20;;;;;;;;;0.00;0.00;;;;;17.28;59.80;101196.78;6090223;23;45338;-76
2021/08/09 02:29:50;;;;;;;;;0.00;0.00;;;;;17.28;59.81;101202.94;6089999;23;45487;-76
2021/08/09 02:32:18;;;;;;;;;0.00;0.00;;;;;17.18;60.36;101207.41;6087788;23;46395;-76
2021/08/09 02:34:46;;;;;;;;;1.00;0.00;;;;;17.17;60.30;101196.91;6089325;23;45338;-76
2021/08/09 02:37:12;;;;;;;;;0.00;0.00;;;;;17.13;60.11;101193.47;6088128;23;45338;-75
2021/08/09 02:39:39;;;;;;;;;0.00;0.00;;;;;17.15;60.74;101193.44;6087874;23;45332;-75
2021/08/09 02:42:06;;;;;;;;;0.00;0.00;;;;;17.09;60.89;101187.34;6089711;23;45229;-75
2021/08/09 02:44:32;;;;;;;;;0.00;0.00;;;;;17.04;60.54;101183.00;6087575;23;45347;-76
2021/08/09 02:47:00;;;;;;;;;0.00;0.00;;;;;16.89;60.71;101168.25;6089868;23;45301;-75
2021/08/09 02:49:26;;;;;;;;;0.00;0.00;;;;;16.96;60.80;101186.59;6089840;23;45254;-75
2021/08/09 02:51:54;;;;;;;;;0.00;0.00;;;;;17.07;60.58;101206.66;6089588;23;46138;-75
2021/08/09 02:54:20;;;;;;;;;0.00;0.00;;;;;16.92;61.03;101182.25;6089543;23;45330;-75
2021/08/09 02:56:46;;;;;;;;;0.00;0.00;;;;;17.06;61.15;101208.41;6089527;23;45565;-75
2021/08/09 02:59:13;;;;;;;;;0.00;0.00;;;;;17.07;60.92;101210.19;6087488;23;45389;-75
2021/08/09 03:01:40;;;;;;;;;0.00;0.00;;;;;17.02;61.58;101211.06;6088872;23;46504;-75
2021/08/09 03:04:10;;;;;;;;;0.00;0.00;;;;;16.97;61.18;101206.72;6089457;23;45336;-75
2021/08/09 03:06:37;;;;;;;;;0.00;0.00;;;;;16.83;61.46;101196.38;6087797;23;45278;-75
2021/08/09 03:09:04;;;;;;;;;0.00;0.00;;;;;16.85;61.83;101202.47;6086665;23;45349;-75
2021/08/09 03:11:30;;;;;;;;;0.00;0.00;;;;;16.83;61.81;101198.13;6088181;23;45270;-76
2021/08/09 03:13:55;;;;;;;;;0.00;0.00;;;;;16.78;61.79;101184.16;6087801;23;45815;-76
2021/08/09 03:16:22;;;;;;;;;0.00;0.00;;;;;16.88;61.68;101192.81;6088390;23;45331;-76
2021/08/09 03:18:47;;;;;;;;;0.50;0.00;;;;;16.93;61.48;101207.66;6089787;23;45465;-76
2021/08/09 03:21:12;;;;;;;;;0.00;0.00;;;;;16.92;61.72;101205.03;6087795;23;46099;-76
2021/08/09 03:23:38;;;;;;;;;0.00;0.00;;;;;16.83;61.52;101191.13;6089100;23;45294;-75
2021/08/09 03:26:04;;;;;;;;;0.00;0.00;;;;;16.92;61.60;101205.03;6089367;23;45589;-75
2021/08/09 03:28:29;;;;;;;;;0.00;0.00;;;;;16.94;61.57;101224.31;6087144;23;45314;-75
2021/08/09 03:30:54;;;;;;;;;0.00;0.00;;;;;16.88;61.67;101208.59;6087754;23;45324;-76
2021/08/09 03:33:19;;;;;;;;;0.00;0.00;;;;;16.88;62.29;101216.47;6088452;23;47767;-75
2021/08/09 03:35:45;;;;;;;;;0.00;0.00;;;;;16.89;62.24;101212.97;6088155;23;59243;-76
2021/08/09 03:38:10;;;;;;;;;0.50;0.50;;;;;16.90;62.00;101217.31;6089713;23;45301;-76
2021/08/09 03:40:35;;;;;;;;;0.00;0.00;;;;;16.91;62.22;101204.16;6087564;23;58671;-77
2021/08/09 03:43:03;;;;;;;;;0.00;0.00;;;;;16.90;61.64;101207.69;6088798;23;45324;-77
2021/08/09 03:45:28;;;;;;;;;0.00;0.00;;;;;16.78;61.94;101192.91;6089467;23;45351;-75
2021/08/09 03:47:54;;;;;;;;;0.00;0.00;;;;;16.82;62.08;101199.03;6087401;23;45374;-75
2021/08/09 03:50:19;;;;;;;;;0.00;0.00;;;;;16.81;62.16;101213.03;6088949;23;46131;-76
2021/08/09 03:52:52;;;;;;;;;0.00;0.00;;;;;16.69;62.75;101198.28;6086726;23;45316;-76
2021/08/09 03:55:18;;;;;;;;;0.00;0.00;;;;;16.77;62.21;101195.53;6086842;23;45335;-76
2021/08/09 03:57:43;;;;;;;;;0.00;0.00;;;;;16.78;62.50;101202.56;6087138;23;45927;-76
2021/08/09 04:00:09;;;;;;;;;0.00;0.00;;;;;16.76;62.01;101201.69;6088693;23;45945;-76
2021/08/09 04:02:36;;;;;;;;;0.00;0.00;;;;;16.77;62.54;101195.53;6087152;23;45984;-73
2021/08/09 04:05:01;;;;;;;;;0.00;0.00;;;;;16.81;62.36;101211.28;6088773;23;45320;-74
2021/08/09 04:07:27;;;;;;;;;0.00;0.00;;;;;16.80;62.52;101203.41;6088996;23;45361;-74
2021/08/09 04:09:54;;;;;;;;;0.00;0.00;;;;;16.87;62.10;101212.13;6088344;23;45787;-75
2021/08/09 04:12:20;;;;;;;;;0.00;0.00;;;;;16.69;62.26;101182.50;6088430;23;45272;-76
2021/08/09 04:14:45;;;;;;;;;0.00;0.00;;;;;16.78;61.99;101208.69;6088593;23;45568;-75
2021/08/09 04:17:11;;;;;;;;;0.00;0.00;;;;;16.76;62.42;101204.34;6089118;23;45287;-76
2021/08/09 04:19:36;;;;;;;;;0.00;0.00;;;;;16.70;62.47;101198.22;6088654;23;45357;-75
2021/08/09 04:22:02;;;;;;;;;0.00;0.00;;;;;16.80;62.31;101222.69;6088470;23;45413;-75
2021/08/09 04:24:27;;;;;;;;;0.00;0.00;;;;;16.84;62.21;101220.88;6088471;23;45326;-74
2021/08/09 04:26:52;;;;;;;;;0.00;0.00;;;;;16.86;62.48;101224.38;6088888;23;45396;-74
2021/08/09 04:29:18;;;;;;;;;0.00;0.00;;;;;16.91;62.05;101233.09;6087688;23;64006;-74
2021/08/09 04:31:43;;;;;;;;;0.00;0.00;;;;;16.98;61.85;101247.06;6088673;23;45395;-74
2021/08/09 04:34:08;;;;;;;;;0.00;0.00;;;;;16.87;62.38;101239.25;6088542;23;45416;-74
2021/08/09 04:36:34;;;;;;;;;0.00;0.00;;;;;16.83;62.01;101242.81;6088273;23;45404;-75
2021/08/09 04:38:59;;;;;;;;;0.00;0.00;;;;;16.78;62.93;101252.53;6088194;23;45742;-75
2021/08/09 04:41:24;;;;;;;;;0.00;0.00;;;;;16.75;62.98;101250.75;6088690;23;45372;-75
2021/08/09 04:43:49;;;;;;;;;0.00;0.00;;;;;16.75;62.61;101255.16;6088432;23;45248;-75
2021/08/09 04:46:15;;;;;;;;;0.00;0.00;;;;;16.72;62.79;101254.31;6088754;23;45259;-74
2021/08/09 04:48:40;;;;;;;;;0.00;0.00;;;;;16.71;63.10;101259.56;6088108;23;45276;-74
2021/08/09 04:51:05;;;;;;;;;0.00;0.00;;;;;16.79;63.09;101254.25;6087907;23;45361;-75
2021/08/09 04:53:31;;;;;;;;;0.00;0.00;;;;;16.83;62.94;101253.34;6087696;23;45358;-74
2021/08/09 04:55:56;;;;;;;;;0.00;0.00;;;;;16.78;63.03;101236.75;6087701;23;45401;-76
2021/08/09 04:58:22;;;;;;;;;0.00;0.00;;;;;16.82;62.69;101234.03;6087693;23;45733;-74
2021/08/09 05:00:47;;;;;;;;;0.00;0.00;;;;;16.84;62.65;101232.28;6085850;23;45378;-74
2021/08/09 05:03:12;;;;;;;;;0.00;0.00;;;;;16.94;62.67;101247.97;6089266;23;45365;-75
2021/08/09 05:05:38;;;;;;;;;0.00;0.00;;;;;16.95;62.29;101250.59;6090858;23;45420;-75
2021/08/09 05:08:04;;;;;;;;;0.00;0.00;;;;;16.81;62.85;101232.31;6087984;23;49031;-75
2021/08/09 05:10:29;;;;;;;;;0.00;0.00;;;;;16.93;62.55;101248.84;6090366;23;45345;-75
2021/08/09 05:12:54;;;;;;;;;0.00;0.00;;;;;16.88;62.78;101248.03;6090023;23;45441;-75
2021/08/09 05:15:22;;;;;;;;;0.00;0.00;;;;;16.80;63.25;101261.25;6088750;23;45406;-76
2021/08/09 05:17:47;;;;;;;;;0.00;0.00;;;;;16.75;63.71;101266.53;6090416;23;45264;-75
2021/08/09 05:20:13;;;;;;;;;0.00;0.00;;;;;16.66;63.83;101256.13;6088366;23;45621;-75
2021/08/09 05:22:38;;;;;;;;;0.00;0.00;;;;;16.68;63.56;101272.75;6089252;23;45295;-75
2021/08/09 05:25:08;;;;;;;;;0.00;0.00;;;;;16.55;63.58;101256.19;6090768;23;45302;-75
2021/08/09 05:27:34;;;;;;;;;0.00;0.00;;;;;16.51;64.22;101239.56;6089532;23;45969;-75
2021/08/09 05:29:59;;;;;;;;;0.00;0.00;;;;;16.66;63.51;101253.50;6089638;23;45320;-75
2021/08/09 05:32:24;;;;;;;;;0.00;0.00;;;;;16.71;63.46;101249.94;6089493;23;45293;-75
2021/08/09 05:34:50;;;;;;;;;0.00;0.00;;;;;16.66;63.62;101241.22;6090336;23;45234;-75
2021/08/09 05:37:15;;;;;;;;;0.00;0.00;;;;;16.68;63.61;101251.72;6089001;23;45305;-75
2021/08/09 05:39:41;;;;;;;;;0.00;0.00;;;;;16.77;63.43;101259.53;6087951;23;45525;-74
2021/08/09 05:42:08;;;;;;;;;0.00;0.00;;;;;16.84;63.38;101239.28;6089782;23;45357;-74
2021/08/09 05:44:34;;;;;;;;;0.00;0.00;;;;;16.16;63.11;101131.28;6090561;23;45377;-75
2021/08/09 05:46:59;;;;;;;;;0.00;0.00;;;;;16.90;63.32;101255.00;6089757;23;46005;-75
2021/08/09 05:49:24;;;;;;;;;0.00;0.00;;;;;16.86;63.81;101248.06;6089219;23;60744;-75
2021/08/09 05:51:49;;;;;;;;;0.00;0.00;;;;;16.88;63.44;101262.06;6089401;23;45269;-74
2021/08/09 05:54:15;;;;;;;;;0.00;0.00;;;;;16.95;63.91;101258.50;6089535;23;45420;-75
2021/08/09 05:56:40;;;;;;;;;0.00;0.00;;;;;16.99;63.57;101258.47;6089264;23;45983;-75
2021/08/09 05:59:05;;;;;;;;;0.00;0.00;;;;;16.88;64.05;101264.69;6087252;23;45717;-75
2021/08/09 06:01:31;;;;;;;;;0.00;0.00;;;;;16.96;63.65;101276.00;6089481;23;45266;-75
2021/08/09 06:03:56;;;;;;;;;0.00;0.00;;;;;16.96;63.75;101278.63;6089599;23;45292;-75
2021/08/09 06:06:22;;;;;;;;;0.00;0.00;;;;;16.94;64.02;101271.66;6087491;23;45403;-74
2021/08/09 06:08:47;;;;;;;;;0.00;0.00;;;;;16.98;63.83;101276.00;6089375;23;45199;-75
2021/08/09 06:11:13;;;;;;;;;0.00;0.00;;;;;17.02;63.34;101263.66;6089062;23;45846;-74
2021/08/09 06:13:38;;;;;;;;;0.00;0.00;;;;;17.10;63.29;101265.34;6088472;23;45296;-75
2021/08/09 06:16:04;;;;;;;;;0.00;0.00;;;;;17.05;63.04;101261.88;6088548;23;45675;-74
2021/08/09 06:18:32;;;;;;;;;0.00;0.00;;;;;17.15;63.31;101286.34;6088470;23;45187;-74
2021/08/09 06:20:58;;;;;;;;;0.00;0.00;;;;;17.10;63.38;101275.03;6088806;23;45378;-74
2021/08/09 06:23:23;;;;;;;;;0.00;0.00;;;;;17.18;63.32;101280.22;6087091;23;45371;-74
2021/08/09 06:25:48;;;;;;;;;0.00;0.00;;;;;17.29;63.44;101287.97;6087659;23;51508;-74
2021/08/09 06:28:14;;;;;;;;;0.00;0.00;;;;;17.34;63.34;101296.72;6087533;23;45400;-74
2021/08/09 06:30:39;;;;;;;;;0.00;0.00;;;;;17.28;63.03;101279.25;6088284;23;45303;-73
2021/08/09 06:33:04;;;;;;;;;0.00;0.00;;;;;17.22;63.32;101293.31;6086101;23;50975;-74
2021/08/09 06:35:31;;;;;;;;;0.00;0.00;;;;;17.21;63.06;101288.06;6087339;23;53800;-75
2021/08/09 06:37:56;;;;;;;;;0.00;0.00;;;;;17.25;63.43;101292.41;6084914;23;45343;-74
2021/08/09 06:40:21;;;;;;;;;3.00;0.00;;;;;17.25;63.28;101296.78;6085665;23;60270;-74
2021/08/09 06:42:47;;;;;;;;;0.00;0.00;;;;;17.30;63.15;101295.84;6088860;23;45341;-74
2021/08/09 06:45:12;;;;;;;;;0.00;0.00;;;;;17.33;63.14;101300.22;6087969;23;45785;-75
2021/08/09 06:47:37;;;;;;;;;0.00;0.00;;;;;17.31;63.27;101292.31;6088385;23;45320;-74
2021/08/09 06:50:03;;;;;;;;;0.00;0.00;;;;;17.24;63.40;101279.28;6088027;23;45400;-74
2021/08/09 06:52:32;;;;;;;;;0.00;0.00;;;;;17.21;63.54;101274.91;6088304;23;45208;-76
2021/08/09 06:54:59;;;;;;;;;0.00;0.00;;;;;17.39;63.82;101289.63;6087364;23;45616;-77
2021/08/09 06:57:24;;;;;;;;;0.25;0.00;;;;;17.49;64.08;101300.94;6088081;23;45386;-75
2021/08/09 06:59:49;;;;;;;;;0.00;0.00;;;;;17.49;63.62;101290.41;6088637;23;45375;-77
2021/08/09 07:02:15;;;;;;;;;1.00;0.00;;;;;17.52;63.62;101314.03;6086961;23;45255;-75
2021/08/09 07:04:40;;;;;;;;;0.00;0.00;;;;;17.55;63.96;101305.25;6085242;23;56921;-76
2021/08/09 07:07:05;;;;;;;;;0.00;0.00;;;;;17.52;64.54;101287.72;6088530;23;48332;-76
2021/08/09 07:09:30;;;;;;;;;0.00;0.00;;;;;17.60;63.96;101293.78;6088443;23;48045;-75
2021/08/09 07:11:56;;;;;;;;;0.00;0.00;;;;;17.76;63.82;101319.06;6089218;23;45349;-74
2021/08/09 07:14:22;;;;;;;;;0.00;0.00;;;;;17.78;64.19;101319.88;6088808;23;45488;-76
2021/08/09 07:16:49;;;;;;;;;0.00;0.00;;;;;17.83;64.52;101321.56;6085917;23;45306;-75
2021/08/09 07:19:15;;;;;;;;;0.00;0.00;;;;;17.90;63.90;101318.88;6088156;23;45340;-73
2021/08/09 07:21:40;;;;;;;;;0.00;0.00;;;;;17.95;64.12;101314.44;6088954;23;45318;-75
2021/08/09 07:24:06;;;;;;;;;0.00;0.00;;;;;18.05;64.14;101317.78;6087978;23;45241;-75
2021/08/09 07:26:32;;;;;;;;;0.00;0.00;;;;;18.11;64.66;101325.66;6087035;23;45336;-76
2021/08/09 07:28:58;;;;;;;;;0.00;0.00;;;;;18.10;63.94;101316.03;6086747;23;45291;-76
2021/08/09 07:31:24;;;;;;;;;0.00;0.00;;;;;18.11;64.36;101323.03;6087930;23;45492;-77
2021/08/09 07:33:49;;;;;;;;;0.25;0.00;;;;;18.15;63.81;101321.19;6087093;23;45413;-76
2021/08/09 07:36:14;;;;;;;;;1.00;0.00;;;;;18.17;63.93;101335.22;6083744;23;45491;-76
2021/08/09 07:38:40;;;;;;;;;0.00;0.00;;;;;18.11;64.06;101338.84;6086528;23;45495;-76
2021/08/09 07:41:05;;;;;;;;;0.00;0.00;;;;;18.10;64.53;101331.81;6088175;23;45316;-75
2021/08/09 07:43:31;;;;;;;;;0.00;0.00;;;;;18.15;63.88;101321.19;6085725;23;45707;-77
2021/08/09 07:45:57;;;;;;;;;1.00;0.00;;;;;18.25;64.21;101336.00;6086189;23;45521;-76
2021/08/09 07:48:22;;;;;;;;;0.00;0.00;;;;;18.30;64.24;101349.09;6086793;23;45316;-75
2021/08/09 07:50:47;;;;;;;;;0.00;0.00;;;;;18.27;63.63;101343.88;6088944;23;45238;-75
2021/08/09 07:53:13;;;;;;;;;0.00;0.00;;;;;18.19;64.25;101341.38;6086170;23;46054;-75
2021/08/09 07:55:38;;;;;;;;;0.00;0.00;;;;;18.16;64.22;101339.63;6084386;23;45262;-74
2021/08/09 07:58:03;;;;;;;;;0.00;0.00;;;;;18.14;64.65;101343.19;6071395;23;45679;-77
2021/08/09 08:00:29;;;;;;;;;1.00;1.00;;;;;18.19;64.01;101338.72;6081068;23;45421;-76
2021/08/09 08:02:54;;;;;;;;;0.00;0.00;;;;;18.24;64.29;101339.53;6082470;23;58088;-76
2021/08/09 08:05:19;;;;;;;;;0.00;0.00;;;;;18.32;64.09;101331.53;6085691;23;45380;-80
2021/08/09 08:07:45;;;;;;;;;0.00;0.00;;;;;18.35;63.99;101332.31;6085440;23;45396;-79
2021/08/09 08:10:11;;;;;;;;;0.00;0.00;;;;;18.43;64.57;101336.63;6086539;23;45645;-78
2021/08/09 08:12:36;;;;;;;;;0.00;0.00;;;;;18.43;63.70;101349.78;6085516;23;45942;-77
2021/08/09 08:15:02;;;;;;;;;0.00;0.00;;;;;18.40;63.94;101353.34;6086195;23;49239;-76
2021/08/09 08:17:27;;;;;;;;;0.00;0.00;;;;;18.44;64.57;101348.91;6085731;23;45289;-77
2021/08/09 08:19:53;;;;;;;;;0.00;0.00;;;;;18.38;63.80;101335.81;6085914;23;52677;-75
2021/08/09 08:22:18;;;;;;;;;0.00;0.00;;;;;18.44;63.74;101336.59;6085731;23;45292;-75
2021/08/09 08:24:43;;;;;;;;;1.00;1.00;;;;;18.42;64.15;101350.69;6085699;23;51385;-74
2021/08/09 08:27:09;;;;;;;;;0.75;0.00;;;;;18.35;63.61;101348.13;6085966;23;45491;-74
2021/08/09 08:29:34;;;;;;;;;0.00;0.00;;;;;18.32;63.87;101347.34;6083920;23;45322;-76
2021/08/09 08:32:00;;;;;;;;;0.00;0.00;;;;;18.35;63.52;101348.13;6085755;23;45944;-77
2021/08/09 08:34:25;;;;;;;;;0.00;0.00;;;;;18.30;63.83;101333.28;6086292;23;45336;-75
2021/08/09 08:36:50;;;;;;;;;0.00;0.00;;;;;18.35;64.29;101345.50;6084550;23;45427;-75
2021/08/09 08:39:16;;;;;;;;;0.00;0.00;;;;;18.26;63.77;101332.47;6085474;23;45545;-75
2021/08/09 08:41:45;;;;;;;;;0.00;0.00;;;;;18.30;63.89;101344.72;6085268;23;46250;-75
2021/08/09 08:44:17;;;;;;;;;7.75;4.25;;;;;18.31;63.81;101329.75;6086046;23;45306;-77
2021/08/09 08:46:42;;;;;;;;;0.00;0.00;;;;;18.46;63.85;101334.81;6082097;23;45383;-73
2021/08/09 08:49:13;;;;;;;;;0.00;0.00;;;;;18.64;63.63;101327.53;6085377;23;45355;-74
2021/08/09 08:51:41;;;;;;;;;0.00;0.00;;;;;18.80;63.51;101330.78;6085699;23;45239;-73
2021/08/09 08:54:06;;;;;;;;;0.00;0.00;;;;;18.97;62.82;101327.00;6085601;23;45352;-74
2021/08/09 08:56:35;;;;;;;;;0.00;0.00;;;;;19.08;63.02;101335.59;6083832;23;45419;-75
2021/08/09 08:59:01;;;;;;;;;1.50;0.00;;;;;19.19;62.76;101340.72;6086217;23;45394;-74
2021/08/09 09:01:37;;;;;;;;;0.00;0.00;;;;;19.31;62.76;101346.66;6084927;23;52583;-76
2021/08/09 09:04:18;;;;;;;;;0.00;0.00;;;;;19.40;61.75;101345.59;6086281;23;45440;-73
2021/08/09 09:06:43;;;;;;;;;0.00;0.00;;;;;19.43;61.50;101362.28;6086367;23;45831;-72
2021/08/09 09:09:20;;;;;;;;;0.00;0.00;;;;;19.31;60.85;101352.81;6086058;23;45700;-72
2021/08/09 09:11:45;;;;;;;;;0.00;0.00;;;;;19.29;61.42;101361.66;6085171;23;45965;-72
2021/08/09 09:14:10;;;;;;;;;0.25;0.25;;;;;19.38;60.85;101374.69;6085840;23;53833;-72
2021/08/09 09:16:45;;;;;;;;;0.00;0.00;;;;;19.37;61.09;101371.19;6084509;23;49292;-72
2021/08/09 09:19:27;;;;;;;;;1.00;0.00;;;;;19.42;60.79;101372.88;6086678;23;45463;-73
2021/08/09 09:21:52;;;;;;;;;0.00;0.00;;;;;19.61;60.27;101370.75;6086003;23;45356;-72
2021/08/09 09:24:20;;;;;;;;;0.00;0.00;;;;;19.72;60.13;101379.31;6086265;23;45297;-72
2021/08/09 09:26:52;;;;;;;;;0.00;0.00;;;;;19.73;59.79;101381.06;6085961;23;45401;-72
2021/08/09 09:29:18;;;;;;;;;0.00;0.00;;;;;19.72;59.74;101379.31;6085982;23;45282;-73
2021/08/09 09:31:47;;;;;;;;;0.00;0.00;;;;;19.72;59.53;101374.03;6085135;23;45363;-76
2021/08/09 09:34:17;;;;;;;;;0.00;0.00;;;;;19.71;59.41;101374.94;6084226;23;45289;-74
2021/08/09 09:36:53;;;;;;;;;1.00;0.00;;;;;19.80;59.84;101391.50;6085896;23;45370;-73
2021/08/09 09:39:51;;;;;;;;;0.00;0.00;;;;;19.95;59.18;101377.13;6085245;23;45409;-73
2021/08/09 09:42:16;;;;;;;;;0.00;0.00;;;;;20.02;59.10;101362.91;6151800;23;47645;-73
2021/08/09 09:44:43;;;;;;;;;0.75;0.00;;;;;20.19;58.58;101372.25;6177281;23;45403;-74
2021/08/09 09:47:21;;;;;;;;;0.00;0.00;;;;;20.47;57.99;101385.75;6177502;23;45406;-74
2021/08/09 09:49:53;;;;;;;;;0.25;0.25;;;;;20.53;57.13;101378.56;6178505;23;45430;-74
2021/08/09 09:52:47;;;;;;;;;0.00;0.00;;;;;20.44;57.57;101384.91;6178746;23;45287;-74
2021/08/09 09:55:15;;;;;;;;;0.00;0.00;;;;;20.36;57.25;101390.38;6171390;23;45531;-74
2021/08/09 09:57:43;;;;;;;;;0.50;0.00;;;;;20.18;57.57;101389.88;6177921;22;45433;-73
2021/08/09 10:00:14;;;;;;;;;0.00;0.00;;;;;20.27;57.62;101395.88;6178641;23;45406;-72
2021/08/09 10:02:41;;;;;;;;;0.00;0.00;;;;;20.27;57.55;101395.88;6154740;23;47370;-73
2021/08/09 10:05:07;;;;;;;;;0.00;0.00;;;;;20.30;57.34;101395.81;6179845;23;45414;-74
2021/08/09 10:07:35;;;;;;;;;0.00;0.00;;;;;20.24;57.36;101391.50;6178390;23;45428;-73
2021/08/09 10:10:01;;;;;;;;;0.00;0.00;;;;;20.21;57.07;101394.25;6179939;23;45584;-74
2021/08/09 10:12:29;;;;;;;;;0.00;0.00;;;;;20.05;57.42;101380.47;6177995;23;45389;-73
2021/08/09 10:14:56;;;;;;;;;0.00;0.00;;;;;20.13;57.51;101389.97;6178010;23;45307;-74
2021/08/09 10:17:23;;;;;;;;;0.00;0.00;;;;;20.08;57.35;101396.25;6152535;23;45318;-73
2021/08/09 10:19:51;;;;;;;;;0.00;0.00;;;;;19.83;57.39;101386.16;6088093;23;45515;-72
2021/08/09 10:22:21;;;;;;;;;0.00;0.00;;;;;19.62;57.81;101386.56;6088124;23;45821;-73
2021/08/09 10:24:48;;;;;;;;;0.00;0.00;;;;;19.62;58.77;101383.03;6083606;23;45456;-74
2021/08/09 10:27:14;;;;;;;;;0.00;0.00;;;;;19.74;58.34;101395.13;6086888;23;45344;-74
2021/08/09 10:29:58;;;;;;;;;0.00;0.00;;;;;19.72;58.23;101400.44;6087942;23;45242;-73
2021/08/09 10:32:24;;;;;;;;;0.00;0.00;;;;;19.75;58.40;101389.81;6087903;23;45390;-75
2021/08/09 10:34:49;;;;;;;;;0.00;0.00;;;;;19.94;58.17;101392.09;6087359;23;45294;-75
2021/08/09 10:37:20;;;;;;;;;0.00;0.00;;;;;20.11;57.95;101390.91;6085536;23;45308;-75
2021/08/09 10:39:46;;;;;;;;;0.00;0.00;;;;;20.12;57.86;101384.72;6088122;23;45298;-72
2021/08/09 10:42:36;;;;;;;;;0.00;0.00;;;;;20.36;58.01;101379.81;6086963;23;46304;-74
2021/08/09 10:45:05;;;;;;;;;0.00;0.00;;;;;20.51;56.69;101378.59;6087659;23;45310;-73
2021/08/09 10:47:46;;;;;;;;;0.00;0.00;;;;;20.59;56.54;101386.34;6087941;23;45274;-74
2021/08/09 10:50:33;;;;;;;;;1.25;0.25;;;;;20.54;56.34;101390.88;6084879;23;45390;-73
2021/08/09 10:52:59;;;;;;;;;0.00;0.00;;;;;20.38;56.51;101370.06;6101586;23;45307;-73
2021/08/09 10:55:30;;;;;;;;;0.00;0.00;;;;;20.55;55.90;101374.97;6086930;23;45517;-73
2021/08/09 10:58:02;;;;;;;;;0.00;0.00;;;;;20.71;55.81;101372.84;6087670;23;45404;-78
2021/08/09 11:00:40;;;;;;;;;0.00;0.00;;;;;20.85;55.07;101374.25;6086935;23;45299;-72
2021/08/09 11:03:07;;;;;;;;;0.00;0.00;;;;;20.72;55.33;101377.22;6086636;23;45392;-75
2021/08/09 11:05:33;;;;;;;;;0.00;0.00;;;;;20.65;55.19;101375.63;6087585;23;45235;-75
2021/08/09 11:08:22;;;;;;;;;0.00;0.00;;;;;20.74;55.48;101378.03;6087831;23;45309;-76
2021/08/09 11:10:54;;;;;;;;;1.00;0.00;;;;;20.81;55.33;101378.78;6087453;23;45349;-74
2021/08/09 11:13:20;;;;;;;;;0.00;0.00;;;;;20.89;55.55;101375.94;6086743;23;45866;-76
2021/08/09 11:16:02;;;;;;;;;0.00;0.00;;;;;21.06;55.12;101361.44;6087650;23;45397;-76
2021/08/09 11:18:29;;;;;;;;;0.00;0.00;;;;;21.34;55.35;101374.81;6086322;23;45331;-76
2021/08/09 11:21:04;;;;;;;;;0.00;0.00;;;;;21.51;54.23;101370.84;6086727;23;45460;-76
2021/08/09 11:23:38;;;;;;;;;0.00;0.00;;;;;21.59;54.08;101371.50;6087074;23;45872;-76
2021/08/09 11:26:04;;;;;;;;;0.00;0.00;;;;;21.53;53.29;101371.66;6084882;23;45409;-76